No1 Tokuyama — JK5318 — position and weather

sailwx.info

Track history (hours):
 
Tides and Currents Weather Stations Pressure Air Temp Water Temp Dewpoint Dewpoint Depression Visibility Wind Speed Wind Dir Waves Ship Positions

No1 Tokuyama

Last reported at 2016-Jun-27 04:33 UTC. Time now 2016-Jun-29 07:29 UTC.
Position N 34°37' E 134°55'.

Length 110 m; draft 5.9 m.

Type: Cargo ship. MMSI: 431400487.

Date/timePositionNaut miles runAvg speedWind from/ knotsBaromVisibWave heightAir tempDewpointWater temp
2016-Jun-27 04:33N 34°37' E 134°55'1414.3
2016-Jun-27 03:33N 34°36' E 135°12'1211.8
2016-Jun-27 02:33N 34°39' E 135°26'0 0.2
2016-Jun-27 01:30N 34°39' E 135°27'0 0.0
2016-Jun-27 00:30N 34°39' E 135°27'0 0.0
2016-Jun-26 23:30N 34°39' E 135°27'0 0.0
2016-Jun-26 22:33N 34°39' E 135°27'6 5.6
2016-Jun-26 21:33N 34°36' E 135°20'2 2.1
2016-Jun-26 20:30N 34°35' E 135°18'0 0.0
2016-Jun-26 19:29N 34°35' E 135°18'0 0.0
2016-Jun-26 18:29N 34°35' E 135°18'0 0.0
2016-Jun-26 17:18N 34°35' E 135°18'0 0.0
2016-Jun-26 16:29N 34°35' E 135°18'0 0.0
2016-Jun-26 15:30N 34°35' E 135°18'0 0.0
2016-Jun-26 14:29N 34°35' E 135°18'0 0.1
2016-Jun-26 13:29N 34°35' E 135°18'0 0.1
2016-Jun-26 12:29N 34°35' E 135°18'0 0.0
2016-Jun-26 11:29N 34°35' E 135°18'0 0.0
2016-Jun-26 10:29N 34°35' E 135°18'0 0.0
2016-Jun-26 09:29N 34°35' E 135°18'0 0.0
2016-Jun-26 08:30N 34°35' E 135°18'0 0.0
2016-Jun-26 07:30N 34°35' E 135°18'0 0.0
2016-Jun-26 06:30N 34°35' E 135°18'0 0.0
2016-Jun-26 05:29N 34°35' E 135°18'0 0.0
2016-Jun-26 04:29N 34°35' E 135°18'0 0.0
2016-Jun-26 03:29N 34°35' E 135°18'0 0.0
2016-Jun-26 02:29N 34°35' E 135°18'0 0.0
2016-Jun-26 01:30N 34°35' E 135°18'0 0.0
2016-Jun-26 00:29N 34°35' E 135°18'1 1.6
2016-Jun-25 23:33N 34°35' E 135°17'1313.2
2016-Jun-25 22:34N 34°37' E 135°01'  
2016-Jun-23 00:28N 34°40' E 134°39'  
2016-Jun-19 20:26N 34°32' E 138°34'5312.7
2016-Jun-19 16:15N 34°58' E 139°30'1013.8
2016-Jun-19 15:32N 35°05' E 139°39'1212.7
2016-Jun-19 14:34N 35°16' E 139°46'1111.0
2016-Jun-19 13:33N 35°27' E 139°46'4 3.6
2016-Jun-19 12:33N 35°30' E 139°44'0 0.0
2016-Jun-19 11:31N 35°30' E 139°44'0 0.0
2016-Jun-19 10:31N 35°30' E 139°44'0 0.0
2016-Jun-19 09:31N 35°30' E 139°44'0 0.0
2016-Jun-19 08:31N 35°30' E 139°44'0 0.0
2016-Jun-19 07:31N 35°30' E 139°44'0 0.0
2016-Jun-19 06:31N 35°30' E 139°44'0 0.0
2016-Jun-19 05:33N 35°30' E 139°44'2 2.1
2016-Jun-19 04:33N 35°28' E 139°42'5 5.2
2016-Jun-19 03:33N 35°24' E 139°45'4 3.9
2016-Jun-19 02:34N 35°22' E 139°49'1 1.1
2016-Jun-19 01:32N 35°22' E 139°51'0 0.0
2016-Jun-19 00:32N 35°22' E 139°51'0 0.0
2016-Jun-18 23:32N 35°22' E 139°51'0 0.0
2016-Jun-18 22:32N 35°22' E 139°51'0 0.0
2016-Jun-18 21:32N 35°22' E 139°51'0 0.0
2016-Jun-18 20:32N 35°22' E 139°51'0 0.0
2016-Jun-18 19:32N 35°22' E 139°51'0 0.0
2016-Jun-18 18:32N 35°22' E 139°51'0 0.0
2016-Jun-18 17:32N 35°22' E 139°51'0 0.0
2016-Jun-18 16:32N 35°22' E 139°51'0 0.0
2016-Jun-18 15:34N 35°22' E 139°51'0 0.0
2016-Jun-18 14:34N 35°22' E 139°51'0 0.0
2016-Jun-18 13:34N 35°22' E 139°51'0 0.0
2016-Jun-18 12:34N 35°22' E 139°51'0 0.0
2016-Jun-18 11:34N 35°22' E 139°51'5 4.6
2016-Jun-18 10:33N 35°25' E 139°47'5 4.7
2016-Jun-18 09:34N 35°26' E 139°41'0 0.0
2016-Jun-18 08:31N 35°26' E 139°41'0 0.0
2016-Jun-18 07:31N 35°26' E 139°41'3 2.6
2016-Jun-18 06:33N 35°26' E 139°44'1111.3
2016-Jun-18 05:33N 35°28' E 139°58'2 1.4
2016-Jun-18 04:29N 35°27' E 139°58'0 0.0
2016-Jun-18 03:32N 35°27' E 139°58'0 0.0
2016-Jun-18 02:32N 35°27' E 139°58'0 0.0
2016-Jun-18 01:26N 35°27' E 139°58'0 0.0
2016-Jun-18 00:23N 35°27' E 139°58'0 0.0
2016-Jun-17 23:23N 35°27' E 139°58'0 0.0
2016-Jun-17 22:33N 35°27' E 139°58'2 2.0
2016-Jun-17 21:33N 35°29' E 139°56'0 0.0
2016-Jun-17 20:33N 35°29' E 139°56'0 0.0
2016-Jun-17 19:33N 35°29' E 139°56'0 0.0
2016-Jun-17 18:33N 35°29' E 139°56'0 0.0
2016-Jun-17 17:33N 35°29' E 139°56'0 0.0
2016-Jun-17 16:33N 35°29' E 139°56'0 0.1
2016-Jun-17 15:33N 35°29' E 139°56'0 0.0
2016-Jun-17 14:33N 35°29' E 139°57'1 1.5
2016-Jun-17 13:33N 35°28' E 139°55'1111.4
2016-Jun-17 12:33N 35°21' E 139°45'1211.6
2016-Jun-17 11:33N 35°09' E 139°46'  
Track history (hours):
 
Tides and Currents Weather Stations Pressure Air Temp Water Temp Dewpoint Dewpoint Depression Visibility Wind Speed Wind Dir Waves Ship Positions

No1 Tokuyama

Last reported at 2016-Jun-27 04:33 UTC. Time now 2016-Jun-29 07:29 UTC.
Position N 34°37' E 134°55'.

Length 110 m; draft 5.9 m.

Type: Cargo ship. MMSI: 431400487.

Date/timePositionNaut miles runAvg speedWind from/ knotsBaromVisibWave heightAir tempDewpointWater temp
2016-Jun-27 04:33N 34°37' E 134°55'1414.3
2016-Jun-27 03:33N 34°36' E 135°12'1211.8
2016-Jun-27 02:33N 34°39' E 135°26'0 0.2
2016-Jun-27 01:30N 34°39' E 135°27'0 0.0
2016-Jun-27 00:30N 34°39' E 135°27'0 0.0
2016-Jun-26 23:30N 34°39' E 135°27'0 0.0
2016-Jun-26 22:33N 34°39' E 135°27'6 5.6
2016-Jun-26 21:33N 34°36' E 135°20'2 2.1
2016-Jun-26 20:30N 34°35' E 135°18'0 0.0
2016-Jun-26 19:29N 34°35' E 135°18'0 0.0
2016-Jun-26 18:29N 34°35' E 135°18'0 0.0
2016-Jun-26 17:18N 34°35' E 135°18'0 0.0
2016-Jun-26 16:29N 34°35' E 135°18'0 0.0
2016-Jun-26 15:30N 34°35' E 135°18'0 0.0
2016-Jun-26 14:29N 34°35' E 135°18'0 0.1
2016-Jun-26 13:29N 34°35' E 135°18'0 0.1
2016-Jun-26 12:29N 34°35' E 135°18'0 0.0
2016-Jun-26 11:29N 34°35' E 135°18'0 0.0
2016-Jun-26 10:29N 34°35' E 135°18'0 0.0
2016-Jun-26 09:29N 34°35' E 135°18'0 0.0
2016-Jun-26 08:30N 34°35' E 135°18'0 0.0
2016-Jun-26 07:30N 34°35' E 135°18'0 0.0
2016-Jun-26 06:30N 34°35' E 135°18'0 0.0
2016-Jun-26 05:29N 34°35' E 135°18'0 0.0
2016-Jun-26 04:29N 34°35' E 135°18'0 0.0
2016-Jun-26 03:29N 34°35' E 135°18'0 0.0
2016-Jun-26 02:29N 34°35' E 135°18'0 0.0
2016-Jun-26 01:30N 34°35' E 135°18'0 0.0
2016-Jun-26 00:29N 34°35' E 135°18'1 1.6
2016-Jun-25 23:33N 34°35' E 135°17'1313.2
2016-Jun-25 22:34N 34°37' E 135°01'  
2016-Jun-23 00:28N 34°40' E 134°39'  
2016-Jun-19 20:26N 34°32' E 138°34'5312.7
2016-Jun-19 16:15N 34°58' E 139°30'1013.8
2016-Jun-19 15:32N 35°05' E 139°39'1212.7
2016-Jun-19 14:34N 35°16' E 139°46'1111.0
2016-Jun-19 13:33N 35°27' E 139°46'4 3.6
2016-Jun-19 12:33N 35°30' E 139°44'0 0.0
2016-Jun-19 11:31N 35°30' E 139°44'0 0.0
2016-Jun-19 10:31N 35°30' E 139°44'0 0.0
2016-Jun-19 09:31N 35°30' E 139°44'0 0.0
2016-Jun-19 08:31N 35°30' E 139°44'0 0.0
2016-Jun-19 07:31N 35°30' E 139°44'0 0.0
2016-Jun-19 06:31N 35°30' E 139°44'0 0.0
2016-Jun-19 05:33N 35°30' E 139°44'2 2.1
2016-Jun-19 04:33N 35°28' E 139°42'5 5.2
2016-Jun-19 03:33N 35°24' E 139°45'4 3.9
2016-Jun-19 02:34N 35°22' E 139°49'1 1.1
2016-Jun-19 01:32N 35°22' E 139°51'0 0.0
2016-Jun-19 00:32N 35°22' E 139°51'0 0.0
2016-Jun-18 23:32N 35°22' E 139°51'0 0.0
2016-Jun-18 22:32N 35°22' E 139°51'0 0.0
2016-Jun-18 21:32N 35°22' E 139°51'0 0.0
2016-Jun-18 20:32N 35°22' E 139°51'0 0.0
2016-Jun-18 19:32N 35°22' E 139°51'0 0.0
2016-Jun-18 18:32N 35°22' E 139°51'0 0.0
2016-Jun-18 17:32N 35°22' E 139°51'0 0.0
2016-Jun-18 16:32N 35°22' E 139°51'0 0.0
2016-Jun-18 15:34N 35°22' E 139°51'0 0.0
2016-Jun-18 14:34N 35°22' E 139°51'0 0.0
2016-Jun-18 13:34N 35°22' E 139°51'0 0.0
2016-Jun-18 12:34N 35°22' E 139°51'0 0.0
2016-Jun-18 11:34N 35°22' E 139°51'5 4.6
2016-Jun-18 10:33N 35°25' E 139°47'5 4.7
2016-Jun-18 09:34N 35°26' E 139°41'0 0.0
2016-Jun-18 08:31N 35°26' E 139°41'0 0.0
2016-Jun-18 07:31N 35°26' E 139°41'3 2.6
2016-Jun-18 06:33N 35°26' E 139°44'1111.3
2016-Jun-18 05:33N 35°28' E 139°58'2 1.4
2016-Jun-18 04:29N 35°27' E 139°58'0 0.0
2016-Jun-18 03:32N 35°27' E 139°58'0 0.0
2016-Jun-18 02:32N 35°27' E 139°58'0 0.0
2016-Jun-18 01:26N 35°27' E 139°58'0 0.0
2016-Jun-18 00:23N 35°27' E 139°58'0 0.0
2016-Jun-17 23:23N 35°27' E 139°58'0 0.0
2016-Jun-17 22:33N 35°27' E 139°58'2 2.0
2016-Jun-17 21:33N 35°29' E 139°56'0 0.0
2016-Jun-17 20:33N 35°29' E 139°56'0 0.0
2016-Jun-17 19:33N 35°29' E 139°56'0 0.0
2016-Jun-17 18:33N 35°29' E 139°56'0 0.0
2016-Jun-17 17:33N 35°29' E 139°56'0 0.0
2016-Jun-17 16:33N 35°29' E 139°56'0 0.1
2016-Jun-17 15:33N 35°29' E 139°56'0 0.0
2016-Jun-17 14:33N 35°29' E 139°57'1 1.5
2016-Jun-17 13:33N 35°28' E 139°55'1111.4
2016-Jun-17 12:33N 35°21' E 139°45'1211.6
2016-Jun-17 11:33N 35°09' E 139°46'  

Dump ship's entire track history